Time;durP1;ratioP1;P1;durP2;ratioP2;P2;SDS_P1;SDS_P2;PMS_P1;PMS_P2;Temp;Humidity;BMP_temperature;BMP_pressure;BME280_temperature;BME280_humidity;BME280_pressure;Samples;Min_cycle;Max_cycle;Signal;HPM_P1;HPM_P2
2020/12/29 00:00:38;;;;;;;14.30;9.70;;;;;;;-144.99;100.00;52497.00;5070174;28;20629;-74
2020/12/29 00:03:04;;;;;;;13.17;9.60;;;;;;;-144.99;100.00;52505.16;5069902;28;20980;-74
2020/12/29 00:05:30;;;;;;;9.53;7.53;;;;;;;-144.99;100.00;52550.00;5069806;28;21257;-71
2020/12/29 00:07:57;;;;;;;13.00;8.97;;;;;;;-144.99;100.00;52529.63;5070068;28;20635;-74
2020/12/29 00:10:24;;;;;;;13.33;9.17;;;;;;;-144.99;100.00;52529.63;5070054;28;20706;-74
2020/12/29 00:12:51;;;;;;;16.70;10.30;;;;;;;-144.99;100.00;52486.81;5069065;28;20766;-74
2020/12/29 00:15:18;;;;;;;15.67;10.13;;;;;;;-144.99;100.00;52509.25;5067917;28;21039;-75
2020/12/29 00:17:44;;;;;;;19.87;10.67;;;;;;;-144.99;100.00;52539.81;5068165;28;20666;-75
2020/12/29 00:20:10;;;;;;;34.83;14.70;;;;;;;-144.99;100.00;52525.56;5068094;28;20715;-73
2020/12/29 00:22:37;;;;;;;16.63;11.07;;;;;;;-144.99;100.00;52523.50;5068024;28;20694;-74
2020/12/29 00:25:04;;;;;;;16.50;9.13;;;;;;;-144.99;100.00;52582.63;5067249;28;20729;-72
2020/12/29 00:27:30;;;;;;;37.90;15.37;;;;;;;-144.99;100.00;52517.41;5067845;28;20655;-72
2020/12/29 00:29:57;;;;;;;41.50;16.07;;;;;;;-144.99;100.00;52519.44;5067650;28;20631;-73
2020/12/29 00:32:23;;;;;;;23.10;13.13;;;;;;;-144.99;100.00;52529.63;5067707;28;21262;-74
2020/12/29 00:34:50;;;;;;;32.37;16.73;;;;;;;-144.99;100.00;52519.44;5068459;28;21002;-73
2020/12/29 00:37:16;;;;;;;20.17;9.67;;;;;;;-144.99;100.00;52501.09;5067707;28;20661;-72
2020/12/29 00:39:43;;;;;;;28.53;13.37;;;;;;;-144.99;100.00;52545.94;4717754;28;9999941;-74
2020/12/29 00:42:10;;;;;;;15.97;11.43;;;;;;;-144.99;100.00;52537.78;5068035;28;20696;-77
2020/12/29 00:44:36;;;;;;;16.60;10.90;;;;;;;-144.99;100.00;52519.44;5067789;28;20618;-77
2020/12/29 00:47:03;;;;;;;23.63;13.10;;;;;;;-144.99;100.00;52545.94;5068247;28;20765;-78
2020/12/29 00:49:29;;;;;;;34.00;16.00;;;;;;;-144.99;100.00;52525.56;5068449;28;20714;-77
2020/12/29 00:51:55;;;;;;;17.13;10.53;;;;;;;-144.99;100.00;52497.00;5069583;28;20650;-73
2020/12/29 00:54:22;;;;;;;30.50;16.27;;;;;;;-144.99;100.00;52537.78;5069126;28;20645;-76
2020/12/29 00:56:48;;;;;;;24.80;15.13;;;;;;;-144.99;100.00;52566.31;5070437;28;21279;-75
2020/12/29 00:59:14;;;;;;;16.10;9.10;;;;;;;-144.99;100.00;52509.25;5070235;28;20670;-76
2020/12/29 01:01:41;;;;;;;21.43;10.47;;;;;;;-144.99;100.00;52529.63;5070287;28;20622;-75
2020/12/29 01:04:08;;;;;;;15.37;9.17;;;;;;;-144.99;100.00;52574.47;5070339;28;20730;-78
2020/12/29 01:06:34;;;;;;;32.57;15.50;;;;;;;-144.99;100.00;52488.84;5069278;28;21226;-76
2020/12/29 01:09:00;;;;;;;32.93;14.50;;;;;;;-144.99;100.00;52525.56;5069853;28;20658;-76
2020/12/29 01:11:27;;;;;;;22.90;12.30;;;;;;;-144.99;100.00;52525.56;5070395;28;20623;-75
2020/12/29 01:13:53;;;;;;;17.07;9.40;;;;;;;-144.99;100.00;52537.78;5069684;28;20662;-75
2020/12/29 01:16:19;;;;;;;21.93;10.97;;;;;;;-144.99;100.00;52525.56;5069841;28;20651;-74
2020/12/29 01:18:47;;;;;;;31.57;17.30;;;;;;;-144.99;100.00;52529.63;5069599;28;21262;-74
2020/12/29 01:21:14;;;;;;;18.70;10.17;;;;;;;-144.99;100.00;52533.69;5069540;28;20627;-76
2020/12/29 01:23:41;;;;;;;12.90;8.77;;;;;;;-144.99;100.00;52541.84;5069845;28;20655;-74
2020/12/29 01:26:08;;;;;;;10.50;8.37;;;;;;;-144.99;100.00;52590.78;5070000;28;20711;-72
2020/12/29 01:28:34;;;;;;;9.60;7.37;;;;;;;-144.99;100.00;52513.31;5069386;28;20619;-73
2020/12/29 01:31:01;;;;;;;11.47;7.30;;;;;;;-144.99;100.00;52545.94;5069356;28;20630;-72
2020/12/29 01:33:27;;;;;;;10.70;7.43;;;;;;;-144.99;100.00;52523.50;5069269;28;20703;-72
2020/12/29 01:35:53;;;;;;;9.97;7.10;;;;;;;-144.99;100.00;52545.94;5069340;28;20734;-72
2020/12/29 01:38:20;;;;;;;10.67;6.80;;;;;;;-144.99;100.00;52537.78;5069586;28;20749;-71
2020/12/29 01:40:46;;;;;;;9.43;6.90;;;;;;;-144.99;100.00;52513.31;5069257;28;20663;-74
2020/12/29 01:43:13;;;;;;;10.17;7.67;;;;;;;-144.99;100.00;52519.44;5069035;28;21231;-73
2020/12/29 01:45:39;;;;;;;8.87;7.03;;;;;;;-144.99;100.00;52529.63;5069312;28;20706;-74
2020/12/29 01:48:05;;;;;;;15.00;7.87;;;;;;;-144.99;100.00;52517.41;5069685;28;21113;-73
2020/12/29 01:50:31;;;;;;;9.47;7.80;;;;;;;-144.99;100.00;52529.63;5069187;28;20641;-73
2020/12/29 01:52:58;;;;;;;12.93;8.33;;;;;;;-144.99;100.00;52562.25;5069684;28;20686;-72
2020/12/29 01:55:26;;;;;;;12.33;7.67;;;;;;;-144.99;100.00;52527.59;5069449;28;20777;-73
2020/12/29 01:57:52;;;;;;;11.07;7.37;;;;;;;-144.99;100.00;52533.69;5069419;28;20651;-73
2020/12/29 02:00:18;;;;;;;12.77;8.43;;;;;;;-144.99;100.00;52574.47;5069464;28;20658;-73
2020/12/29 02:02:46;;;;;;;13.17;7.87;;;;;;;-144.99;100.00;52517.41;5069141;28;21188;-72
2020/12/29 02:05:12;;;;;;;14.50;7.03;;;;;;;-144.99;100.00;52509.25;5069590;28;20614;-72
2020/12/29 02:07:40;;;;;;;8.60;6.97;;;;;;;-144.99;100.00;52537.78;5069351;28;20670;-73
2020/12/29 02:10:06;;;;;;;10.40;7.37;;;;;;;-144.99;100.00;52517.41;5069093;28;21068;-73
2020/12/29 02:12:34;;;;;;;9.83;8.37;;;;;;;-144.99;100.00;52509.25;5068862;28;20761;-73
2020/12/29 02:15:03;;;;;;;12.20;8.80;;;;;;;-144.99;100.00;52525.56;5068651;28;20727;-73
2020/12/29 02:17:29;;;;;;;11.20;7.23;;;;;;;-144.99;100.00;52574.47;5068312;28;20718;-73
2020/12/29 02:19:55;;;;;;;9.13;7.60;;;;;;;-144.99;100.00;52578.53;5068554;28;20622;-72
2020/12/29 02:22:23;;;;;;;10.70;8.50;;;;;;;-144.99;100.00;52550.00;5069486;28;20686;-73
2020/12/29 02:24:51;;;;;;;8.90;7.73;;;;;;;-144.99;100.00;52558.16;5068847;28;20662;-73
2020/12/29 02:27:19;;;;;;;12.10;9.10;;;;;;;-144.99;100.00;52521.47;5068609;28;20655;-75
2020/12/29 02:29:46;;;;;;;9.83;7.40;;;;;;;-144.99;100.00;52543.91;5068924;28;20994;-73
2020/12/29 02:32:12;;;;;;;9.90;7.73;;;;;;;-144.99;100.00;52537.78;5069122;28;20726;-74
2020/12/29 02:34:39;;;;;;;11.30;8.23;;;;;;;-144.99;100.00;52545.94;5068411;28;20641;-73
2020/12/29 02:37:06;;;;;;;10.30;7.40;;;;;;;-144.99;100.00;52505.16;5071341;28;21052;-73
2020/12/29 02:39:33;;;;;;;11.90;8.50;;;;;;;-144.99;100.00;52578.53;5071973;28;20757;-73
2020/12/29 02:42:00;;;;;;;12.93;8.30;;;;;;;-144.99;100.00;52545.94;5072821;28;20614;-73
2020/12/29 02:44:26;;;;;;;10.87;8.30;;;;;;;-144.99;100.00;52537.78;5091308;22;20964;-74
2020/12/29 02:46:52;;;;;;;10.23;7.47;;;;;;;-144.99;100.00;52556.13;5072759;28;20631;-74
2020/12/29 02:49:19;;;;;;;9.57;7.73;;;;;;;-144.99;100.00;52578.53;5072075;28;20650;-75
2020/12/29 02:51:45;;;;;;;10.57;8.27;;;;;;;-144.99;100.00;52566.31;5072438;28;20715;-76
2020/12/29 02:54:11;;;;;;;9.00;7.13;;;;;;;-144.99;100.00;52574.47;5072844;28;21070;-75
2020/12/29 02:56:39;;;;;;;10.10;8.53;;;;;;;-144.99;100.00;52521.47;5072702;28;21132;-75
2020/12/29 02:59:05;;;;;;;10.60;7.27;;;;;;;-144.99;100.00;52529.63;5072359;28;20684;-76
2020/12/29 03:01:31;;;;;;;11.13;8.93;;;;;;;-144.99;100.00;52547.97;5073476;28;20730;-76
2020/12/29 03:03:57;;;;;;;10.50;7.63;;;;;;;-144.99;100.00;52529.63;5072587;28;20804;-75
2020/12/29 03:06:23;;;;;;;9.43;7.97;;;;;;;-144.99;100.00;52558.16;5074495;28;20796;-75
2020/12/29 03:08:50;;;;;;;11.27;8.30;;;;;;;-144.99;100.00;52494.97;5080136;28;20665;-77
2020/12/29 03:11:22;;;;;;;10.00;7.53;;;;;;;-144.99;100.00;52519.44;5078166;28;20643;-75
2020/12/29 03:13:49;;;;;;;11.23;7.70;;;;;;;-144.99;100.00;52578.53;5067518;28;20682;-75
2020/12/29 03:16:16;;;;;;;14.80;9.60;;;;;;;-144.99;100.00;52582.63;5053164;28;21215;-76
2020/12/29 03:18:42;;;;;;;10.33;7.03;;;;;;;-144.99;100.00;52533.69;5055714;28;20699;-75
2020/12/29 03:21:08;;;;;;;12.20;9.57;;;;;;;-144.99;100.00;52554.09;5055299;28;20786;-75
2020/12/29 03:23:34;;;;;;;9.53;7.67;;;;;;;-144.99;100.00;52517.41;5065053;28;21343;-75
2020/12/29 03:26:00;;;;;;;9.80;7.63;;;;;;;-144.99;100.00;52497.00;5064381;28;20635;-76
2020/12/29 03:28:26;;;;;;;11.77;8.43;;;;;;;-144.99;100.00;52494.97;5061844;28;20719;-75
2020/12/29 03:30:53;;;;;;;10.57;8.10;;;;;;;-144.99;100.00;52545.94;5060772;28;20896;-75
2020/12/29 03:33:20;;;;;;;9.73;7.83;;;;;;;-144.99;100.00;52578.53;5052637;28;20945;-75
2020/12/29 03:35:47;;;;;;;12.13;7.90;;;;;;;-144.99;100.00;52582.63;5052470;28;21105;-74
2020/12/29 03:38:13;;;;;;;17.97;10.00;;;;;;;-144.99;100.00;52543.91;5058291;28;20650;-74
2020/12/29 03:40:39;;;;;;;10.60;7.50;;;;;;;-144.99;100.00;52509.25;5053883;28;20663;-72
2020/12/29 03:43:07;;;;;;;11.30;7.80;;;;;;;-144.99;100.00;52517.41;5052074;28;20650;-73
2020/12/29 03:45:34;;;;;;;10.07;7.60;;;;;;;-144.99;100.00;52525.56;5052280;28;20643;-74
2020/12/29 03:48:00;;;;;;;14.87;9.93;;;;;;;-144.99;100.00;52545.94;5071226;28;20615;-77
2020/12/29 03:50:27;;;;;;;19.73;12.03;;;;;;;-144.99;100.00;52533.69;5094152;28;20667;-74
2020/12/29 03:52:53;;;;;;;13.17;9.80;;;;;;;-144.99;100.00;52513.31;5091839;28;20630;-74
2020/12/29 03:55:19;;;;;;;10.33;9.03;;;;;;;-144.99;100.00;52566.31;5081160;28;20681;-74
2020/12/29 03:57:48;;;;;;;12.90;9.23;;;;;;;-144.99;100.00;52537.78;5078274;28;21326;-74
2020/12/29 04:00:14;;;;;;;15.13;9.87;;;;;;;-144.99;100.00;52525.56;5072460;28;20630;-75
2020/12/29 04:02:40;;;;;;;16.63;11.03;;;;;;;-144.99;100.00;52527.59;5072048;28;20632;-75
2020/12/29 04:05:08;;;;;;;13.57;8.77;;;;;;;-144.99;100.00;52550.00;5071676;28;20646;-75
2020/12/29 04:07:34;;;;;;;14.50;10.10;;;;;;;-144.99;100.00;52517.41;5071919;28;20664;-75
2020/12/29 04:10:00;;;;;;;15.13;11.17;;;;;;;-144.99;100.00;52545.94;5071044;28;20719;-76
2020/12/29 04:12:26;;;;;;;14.90;10.67;;;;;;;-144.99;100.00;52525.56;5064874;28;20730;-75
2020/12/29 04:14:52;;;;;;;28.73;11.17;;;;;;;-144.99;100.00;52533.69;5051260;28;21225;-75
2020/12/29 04:17:18;;;;;;;15.17;11.03;;;;;;;-144.99;100.00;52525.56;5051406;28;20670;-75
2020/12/29 04:19:44;;;;;;;17.13;10.93;;;;;;;-144.99;100.00;52541.84;5050878;28;21079;-76
2020/12/29 04:22:12;;;;;;;17.43;12.17;;;;;;;-144.99;100.00;52531.66;5051827;28;20668;-75
2020/12/29 04:24:38;;;;;;;23.37;14.13;;;;;;;-144.99;100.00;52541.84;5051669;28;20742;-75
2020/12/29 04:27:04;;;;;;;14.73;9.87;;;;;;;-144.99;100.00;52533.69;5051281;28;20787;-76
2020/12/29 04:29:30;;;;;;;14.93;10.60;;;;;;;-144.99;100.00;52556.13;5050464;28;20720;-74
2020/12/29 04:31:56;;;;;;;24.67;14.83;;;;;;;-144.99;100.00;52517.41;5051768;28;20659;-75
2020/12/29 04:34:22;;;;;;;18.27;12.17;;;;;;;-144.99;100.00;52574.47;5051467;28;20687;-75
2020/12/29 04:36:52;;;;;;;18.63;12.33;;;;;;;-144.99;100.00;52517.41;5051539;28;21050;-75
2020/12/29 04:39:19;;;;;;;10.17;7.17;;;;;;;-144.99;100.00;52533.69;5050803;28;21217;-75
2020/12/29 04:41:51;;;;;;;11.90;9.57;;;;;;;-144.99;100.00;52545.94;5050872;28;20616;-75
2020/12/29 04:44:17;;;;;;;10.63;8.83;;;;;;;-144.99;100.00;52537.78;5066334;28;21243;-73
2020/12/29 04:46:43;;;;;;;13.00;10.00;;;;;;;-144.99;100.00;52515.34;5070813;28;20723;-74
2020/12/29 04:49:12;;;;;;;11.77;9.73;;;;;;;-144.99;100.00;52541.84;5069854;28;20646;-73
2020/12/29 04:51:39;;;;;;;13.67;8.40;;;;;;;-144.99;100.00;52533.69;5070973;28;21122;-75
2020/12/29 04:54:07;;;;;;;11.40;8.43;;;;;;;-144.99;100.00;52550.00;5071293;28;20647;-75
2020/12/29 04:56:35;;;;;;;11.67;10.20;;;;;;;-144.99;100.00;52529.63;5069948;28;20657;-74
2020/12/29 04:59:02;;;;;;;13.53;9.57;;;;;;;-144.99;100.00;52533.69;5069244;28;20746;-74
2020/12/29 05:01:30;;;;;;;10.67;8.00;;;;;;;-144.99;100.00;52537.78;5070325;28;20676;-75
2020/12/29 05:03:57;;;;;;;11.63;8.30;;;;;;;-144.99;100.00;52529.63;5070529;28;20673;-75
2020/12/29 05:06:24;;;;;;;11.73;8.37;;;;;;;-144.99;100.00;52541.84;5070286;28;20842;-75
2020/12/29 05:08:52;;;;;;;14.47;9.37;;;;;;;-144.99;100.00;52558.16;5070865;28;20716;-74
2020/12/29 05:11:19;;;;;;;13.10;9.90;;;;;;;-144.99;100.00;52523.50;5070535;28;21234;-75
2020/12/29 05:13:47;;;;;;;13.13;9.73;;;;;;;-144.99;100.00;52529.63;5053758;28;20759;-75
2020/12/29 05:16:14;;;;;;;14.23;9.83;;;;;;;-144.99;100.00;52539.81;5050503;28;20759;-75
2020/12/29 05:18:40;;;;;;;21.43;12.57;;;;;;;-144.99;100.00;52529.63;5049785;28;20662;-75
2020/12/29 05:21:07;;;;;;;25.30;14.03;;;;;;;-144.99;100.00;52545.94;5049711;28;21259;-75
2020/12/29 05:23:35;;;;;;;18.93;11.13;;;;;;;-144.99;100.00;52545.94;5050225;28;20651;-75
2020/12/29 05:26:01;;;;;;;21.33;11.97;;;;;;;-144.99;100.00;52562.25;5050026;28;20621;-76
2020/12/29 05:28:28;;;;;;;14.93;9.83;;;;;;;-144.99;100.00;52525.56;5049993;28;20648;-76
2020/12/29 05:30:56;;;;;;;20.43;11.63;;;;;;;-144.99;100.00;52558.16;5049851;28;20734;-75
2020/12/29 05:33:22;;;;;;;22.33;9.10;;;;;;;-144.99;100.00;52529.63;5049738;28;21032;-76
2020/12/29 05:35:51;;;;;;;12.47;9.50;;;;;;;-144.99;100.00;52554.09;5049759;28;20727;-75
2020/12/29 05:38:18;;;;;;;16.03;10.43;;;;;;;-144.99;100.00;52541.84;5045037;28;20746;-75
2020/12/29 05:40:45;;;;;;;13.50;10.33;;;;;;;-144.99;100.00;52505.16;5049607;28;20727;-76
2020/12/29 05:43:11;;;;;;;18.63;11.47;;;;;;;-144.99;100.00;52529.63;5050327;28;20727;-75
2020/12/29 05:45:38;;;;;;;20.97;14.57;;;;;;;-144.99;100.00;52513.31;5051122;28;20631;-75
2020/12/29 05:48:06;;;;;;;22.87;13.33;;;;;;;-144.99;100.00;52545.94;5069731;28;20742;-75
2020/12/29 05:50:33;;;;;;;24.20;14.47;;;;;;;-144.99;100.00;52525.56;5070384;28;21180;-75
2020/12/29 05:53:01;;;;;;;19.43;10.60;;;;;;;-144.99;100.00;52517.41;5069991;28;20614;-75
2020/12/29 05:55:27;;;;;;;16.80;11.80;;;;;;;-144.99;100.00;52509.25;5070474;28;20709;-75
2020/12/29 05:58:04;;;;;;;12.17;9.67;;;;;;;-144.99;100.00;52550.00;5069623;28;20620;-75
2020/12/29 06:00:30;;;;;;;16.80;13.00;;;;;;;-144.99;100.00;52545.94;5070063;28;20617;-75
2020/12/29 06:02:58;;;;;;;23.37;11.57;;;;;;;-144.99;100.00;52554.09;5069716;28;20654;-74
2020/12/29 06:05:26;;;;;;;29.13;14.00;;;;;;;-144.99;100.00;52552.03;5069732;28;20738;-75
2020/12/29 06:07:56;;;;;;;23.20;14.10;;;;;;;-144.99;100.00;52556.13;5069278;28;20679;-73
2020/12/29 06:10:23;;;;;;;26.47;14.03;;;;;;;-144.99;100.00;52517.41;5072080;28;20726;-73
2020/12/29 06:12:52;;;;;;;24.33;15.13;;;;;;;-144.99;100.00;52505.16;5065855;28;20630;-74
2020/12/29 06:15:28;;;;;;;27.70;13.47;;;;;;;-144.99;100.00;52545.94;5056781;28;20655;-73
2020/12/29 06:17:57;;;;;;;21.10;13.27;;;;;;;-144.99;100.00;52554.09;5055052;28;21216;-73
2020/12/29 06:20:24;;;;;;;19.47;11.03;;;;;;;-144.99;100.00;52523.50;5056313;28;20757;-74
2020/12/29 06:22:52;;;;;;;13.50;8.83;;;;;;;-144.99;100.00;52529.63;5055946;28;20673;-73
2020/12/29 06:25:19;;;;;;;10.63;9.00;;;;;;;-144.99;100.00;52497.00;5057016;28;20640;-73
2020/12/29 06:27:59;;;;;;;13.47;10.30;;;;;;;-144.99;100.00;52550.00;5055954;28;20616;-73
2020/12/29 06:30:25;;;;;;;12.93;9.30;;;;;;;-144.99;100.00;52562.25;5055949;28;20735;-72
2020/12/29 06:32:54;;;;;;;12.10;8.70;;;;;;;-144.99;100.00;52519.44;5073670;28;20987;-72
2020/12/29 06:35:21;;;;;;;15.17;11.33;;;;;;;-144.99;100.00;52554.09;5076391;28;21388;-72
2020/12/29 06:37:54;;;;;;;13.87;9.27;;;;;;;-144.99;100.00;52537.78;5059947;28;20711;-73
2020/12/29 06:40:22;;;;;;;13.63;9.70;;;;;;;-144.99;100.00;52505.16;5055795;28;20697;-73
2020/12/29 06:42:48;;;;;;;12.43;9.97;;;;;;;-144.99;100.00;52488.84;5055887;28;20717;-74
2020/12/29 06:45:14;;;;;;;13.67;10.07;;;;;;;-144.99;100.00;52509.25;5056212;28;21096;-73
2020/12/29 06:47:44;;;;;;;11.93;8.87;;;;;;;-144.99;100.00;52547.97;5055863;28;21207;-74
2020/12/29 06:50:26;;;;;;;11.20;9.60;;;;;;;-144.99;100.00;52517.41;5056087;28;20659;-75
2020/12/29 06:53:00;;;;;;;9.33;8.30;;;;;;;-144.99;100.00;52566.31;5043621;28;20611;-76
2020/12/29 06:55:30;;;;;;;16.63;9.37;;;;;;;-144.99;100.00;52529.63;5056368;28;20746;-75
2020/12/29 06:57:56;;;;;;;12.50;9.03;;;;;;;-144.99;100.00;52525.56;5065499;28;20627;-74
2020/12/29 07:00:24;;;;;;;15.37;10.70;;;;;;;-144.99;100.00;52523.50;5076341;28;20639;-75
2020/12/29 07:02:52;;;;;;;15.63;8.53;;;;;;;-144.99;100.00;52525.56;5076244;28;20960;-75
2020/12/29 07:05:21;;;;;;;14.87;8.83;;;;;;;-144.99;100.00;52541.84;5077264;28;20658;-76
2020/12/29 07:07:53;;;;;;;16.37;11.60;;;;;;;-144.99;100.00;52545.94;5076069;28;20691;-74
2020/12/29 07:10:21;;;;;;;12.10;9.87;;;;;;;-144.99;100.00;52541.84;5079087;28;20692;-76
2020/12/29 07:12:51;;;;;;;16.40;10.50;;;;;;;-144.99;100.00;52558.16;5071256;28;20659;-76
2020/12/29 07:15:20;;;;;;;13.00;9.80;;;;;;;-144.99;100.00;52545.94;5061513;28;20694;-75
2020/12/29 07:17:56;;;;;;;13.40;9.40;;;;;;;-144.99;100.00;52541.84;5063798;28;20620;-74
2020/12/29 07:20:23;;;;;;;12.43;9.83;;;;;;;-144.99;100.00;52525.56;5062778;28;20650;-74
2020/12/29 07:23:08;;;;;;;14.83;8.97;;;;;;;-144.99;100.00;52537.78;5063515;28;20623;-74
2020/12/29 07:25:36;;;;;;;14.23;10.13;;;;;;;-144.99;100.00;52529.63;5059941;28;20722;-74
2020/12/29 07:28:07;;;;;;;12.60;8.97;;;;;;;-144.99;100.00;52521.47;5058851;28;21058;-74
2020/12/29 07:30:35;;;;;;;12.03;10.83;;;;;;;-144.99;100.00;52527.59;5053137;28;20646;-77
2020/12/29 07:33:03;;;;;;;12.47;9.77;;;;;;;-144.99;100.00;52521.47;5054422;28;20643;-76
2020/12/29 07:35:32;;;;;;;16.43;9.53;;;;;;;-144.99;100.00;52545.94;5062302;28;21264;-74
2020/12/29 07:38:01;;;;;;;13.50;10.07;;;;;;;-144.99;100.00;52525.56;5052762;28;20631;-75
2020/12/29 07:40:28;;;;;;;12.63;9.13;;;;;;;-144.99;100.00;52554.09;5053216;28;20714;-74
2020/12/29 07:42:54;;;;;;;12.20;10.47;;;;;;;-144.99;100.00;52517.41;5053132;28;20659;-76
2020/12/29 07:45:24;;;;;;;14.37;10.07;;;;;;;-144.99;100.00;52521.47;5053217;28;20686;-78
2020/12/29 07:47:51;;;;;;;12.77;9.37;;;;;;;-144.99;100.00;52541.84;5060550;28;20623;-73
2020/12/29 07:50:17;;;;;;;11.30;8.93;;;;;;;-144.99;100.00;52537.78;5073570;28;20626;-74
2020/12/29 07:52:43;;;;;;;11.83;8.90;;;;;;;-144.99;100.00;52527.59;5073716;28;20627;-74
2020/12/29 07:55:12;;;;;;;11.83;8.27;;;;;;;-144.99;100.00;52509.25;5074180;28;21353;-76
2020/12/29 07:57:38;;;;;;;10.17;8.90;;;;;;;-144.99;100.00;52566.31;5074485;28;20611;-75
2020/12/29 08:00:13;;;;;;;9.93;8.30;;;;;;;-144.99;100.00;52554.09;5074121;28;20644;-75
2020/12/29 08:02:40;;;;;;;12.23;9.13;;;;;;;-144.99;100.00;52554.09;5073359;28;20633;-72
2020/12/29 08:05:07;;;;;;;21.73;10.27;;;;;;;-144.99;100.00;52527.59;5073075;28;20745;-74
2020/12/29 08:07:33;;;;;;;13.73;9.10;;;;;;;-144.99;100.00;52513.31;5069871;28;20612;-77
2020/12/29 08:09:59;;;;;;;14.17;8.97;;;;;;;-144.99;100.00;52541.84;5054610;28;20726;-75
2020/12/29 08:12:26;;;;;;;11.60;8.53;;;;;;;-144.99;100.00;52497.00;5054467;28;20660;-76
2020/12/29 08:14:52;;;;;;;15.63;11.30;;;;;;;-144.99;100.00;52545.94;5052629;28;20767;-75
2020/12/29 08:17:19;;;;;;;12.20;9.30;;;;;;;-144.99;100.00;52517.41;5051931;28;20671;-75
2020/12/29 08:19:57;;;;;;;11.73;9.50;;;;;;;-144.99;100.00;52558.16;5051869;28;20699;-75
2020/12/29 08:22:26;;;;;;;14.77;10.93;;;;;;;-144.99;100.00;52545.94;5053832;28;20698;-74
2020/12/29 08:24:53;;;;;;;14.70;10.07;;;;;;;-144.99;100.00;52492.94;5053279;28;20651;-74
2020/12/29 08:27:19;;;;;;;13.27;9.60;;;;;;;-144.99;100.00;52562.25;5052952;28;21102;-75
2020/12/29 08:29:46;;;;;;;18.23;9.67;;;;;;;-144.99;100.00;52523.50;5051092;28;20631;-74
2020/12/29 08:32:16;;;;;;;15.10;11.80;;;;;;;-144.99;100.00;52550.00;5051194;28;20977;-75
2020/12/29 08:34:46;;;;;;;15.07;11.90;;;;;;;-144.99;100.00;52525.56;5049445;28;20751;-75
2020/12/29 08:37:18;;;;;;;18.07;14.00;;;;;;;-144.99;100.00;52552.03;5051049;28;20620;-75
2020/12/29 08:40:04;;;;;;;18.13;12.33;;;;;;;-144.99;100.00;52547.97;5050548;28;20655;-75
2020/12/29 08:42:33;;;;;;;20.87;15.53;;;;;;;-144.99;100.00;52509.25;5051216;28;20734;-75
2020/12/29 08:45:00;;;;;;;19.37;14.63;;;;;;;-144.99;100.00;52556.13;5067337;22;20683;-75
2020/12/29 08:47:32;;;;;;;18.67;12.47;;;;;;;-144.99;100.00;52509.25;5053518;28;20620;-72
2020/12/29 08:49:59;;;;;;;15.40;12.63;;;;;;;-144.99;100.00;52521.47;5052453;28;20651;-73
2020/12/29 08:52:30;;;;;;;16.63;12.00;;;;;;;-144.99;100.00;52509.25;5053633;28;20718;-72
2020/12/29 08:54:56;;;;;;;18.43;12.90;;;;;;;-144.99;100.00;52521.47;5053649;28;20977;-73
2020/12/29 08:57:26;;;;;;;15.17;13.13;;;;;;;-144.99;100.00;52529.63;5053430;28;21309;-73
2020/12/29 08:59:52;;;;;;;20.00;14.27;;;;;;;-144.99;100.00;52501.09;4700898;28;9999751;-73
2020/12/29 09:02:28;;;;;;;16.90;12.57;;;;;;;-144.99;100.00;52529.63;5048412;28;20292;-74
2020/12/29 09:04:59;;;;;;;16.53;13.10;;;;;;;-144.99;100.00;52501.09;5047944;28;20777;-77
2020/12/29 09:07:28;;;;;;;26.57;16.13;;;;;;;-144.99;100.00;52527.59;5048391;28;20616;-74
2020/12/29 09:10:04;;;;;;;21.57;17.20;;;;;;;-144.99;100.00;52533.69;5048397;28;20656;-73
2020/12/29 09:12:31;;;;;;;18.77;14.47;;;;;;;-144.99;100.00;52529.63;5047994;28;20627;-74
2020/12/29 09:14:59;;;;;;;21.37;16.07;;;;;;;-144.99;100.00;52533.69;5047332;28;20651;-74
2020/12/29 09:17:26;;;;;;;20.97;16.10;;;;;;;-144.99;100.00;52521.47;5048667;28;20628;-73
2020/12/29 09:20:11;;;;;;;23.63;18.40;;;;;;;-144.99;100.00;52505.16;5047350;28;20819;-75
2020/12/29 09:22:54;;;;;;;19.83;15.77;;;;;;;-144.99;100.00;52529.63;5049068;28;20628;-73
2020/12/29 09:25:25;;;;;;;24.13;17.43;;;;;;;-144.99;100.00;52497.00;5049040;28;20679;-73
2020/12/29 09:28:08;;;;;;;23.20;15.90;;;;;;;-144.99;100.00;52529.63;5048198;28;20652;-74
2020/12/29 09:30:34;;;;;;;20.93;16.53;;;;;;;-144.99;100.00;52533.69;5046999;28;20673;-73
2020/12/29 09:33:00;;;;;;;23.97;18.47;;;;;;;-144.99;100.00;52529.63;5047143;28;20725;-73
2020/12/29 09:35:28;;;;;;;24.13;17.87;;;;;;;-144.99;100.00;52511.28;5048403;28;20682;-74
2020/12/29 09:37:55;;;;;;;25.03;18.63;;;;;;;-144.99;100.00;52486.81;5047444;28;21043;-75
2020/12/29 09:40:22;;;;;;;25.67;20.20;;;;;;;-144.99;100.00;52515.34;5046621;28;21256;-75
2020/12/29 09:42:49;;;;;;;26.20;18.87;;;;;;;-144.99;100.00;52558.16;5045996;28;20731;-74
2020/12/29 09:45:17;;;;;;;27.67;18.97;;;;;;;-144.99;100.00;52521.47;5046295;28;20687;-73
2020/12/29 09:47:44;;;;;;;26.17;19.37;;;;;;;-144.99;100.00;52501.09;5045390;28;20697;-74
2020/12/29 09:50:10;;;;;;;28.90;22.57;;;;;;;-144.99;100.00;52533.69;5045878;28;21246;-74
2020/12/29 09:52:37;;;;;;;29.90;21.53;;;;;;;-144.99;100.00;52484.78;5046365;28;20663;-72
2020/12/29 09:55:04;;;;;;;26.57;22.97;;;;;;;-144.99;100.00;52478.66;5046423;28;20766;-75
2020/12/29 09:57:30;;;;;;;29.73;22.30;;;;;;;-144.99;100.00;52488.84;5045578;28;20640;-73
2020/12/29 09:59:57;;;;;;;26.60;19.70;;;;;;;-144.99;100.00;52517.41;5039372;28;21280;-73
2020/12/29 10:02:24;;;;;;;31.03;23.13;;;;;;;-144.99;100.00;52525.56;5045921;28;20689;-74
2020/12/29 10:04:50;;;;;;;25.90;22.10;;;;;;;-144.99;100.00;52486.81;5046786;28;20679;-74
2020/12/29 10:07:16;;;;;;;28.23;24.33;;;;;;;-144.99;100.00;52525.56;5046771;28;20646;-73
2020/12/29 10:09:43;;;;;;;30.97;22.53;;;;;;;-144.99;100.00;52499.06;5046262;28;21133;-74
2020/12/29 10:12:09;;;;;;;26.13;21.10;;;;;;;-144.99;100.00;52533.69;5046183;28;20731;-75
2020/12/29 10:14:35;;;;;;;24.87;21.93;;;;;;;-144.99;100.00;52480.72;5046230;28;21212;-75
2020/12/29 10:17:02;;;;;;;24.87;21.27;;;;;;;-144.99;100.00;52517.41;5046457;28;20619;-74
2020/12/29 10:19:28;;;;;;;25.80;18.50;;;;;;;-144.99;100.00;52527.59;5045871;28;21076;-76
2020/12/29 10:21:56;;;;;;;26.37;20.93;;;;;;;-144.99;100.00;52558.16;5046726;28;20919;-74
2020/12/29 10:24:24;;;;;;;22.97;20.37;;;;;;;-144.99;100.00;52494.97;5046361;28;20628;-73
2020/12/29 10:26:52;;;;;;;26.03;21.53;;;;;;;-144.99;100.00;52501.09;5046022;28;20666;-74
2020/12/29 10:29:18;;;;;;;20.30;18.20;;;;;;;-144.99;100.00;52492.94;5045273;28;20727;-74
2020/12/29 10:31:44;;;;;;;22.63;19.60;;;;;;;-144.99;100.00;52476.63;5046250;28;20778;-74
2020/12/29 10:34:11;;;;;;;22.03;18.40;;;;;;;-144.99;100.00;52505.16;5045649;28;20653;-73
2020/12/29 10:36:38;;;;;;;20.33;18.23;;;;;;;-144.99;100.00;52468.47;5046030;28;20743;-74
2020/12/29 10:39:06;;;;;;;19.73;17.07;;;;;;;-144.99;100.00;52494.97;5046227;28;21112;-74
2020/12/29 10:41:35;;;;;;;20.87;18.47;;;;;;;-144.99;100.00;52519.44;5045380;28;20660;-71
2020/12/29 10:44:03;;;;;;;27.57;18.63;;;;;;;-144.99;100.00;52499.06;5045835;28;20652;-74
2020/12/29 10:46:29;;;;;;;20.53;18.23;;;;;;;-144.99;100.00;52521.47;5045943;28;20695;-73
2020/12/29 10:48:55;;;;;;;19.90;16.63;;;;;;;-144.99;100.00;52533.69;5045092;28;21084;-73
2020/12/29 10:51:23;;;;;;;25.70;20.20;;;;;;;-144.99;100.00;52509.25;5045963;28;20658;-72
2020/12/29 10:53:50;;;;;;;23.73;19.07;;;;;;;-144.99;100.00;52513.31;5045821;28;20735;-73
2020/12/29 10:56:16;;;;;;;19.47;17.43;;;;;;;-144.99;100.00;52509.25;5046147;28;20760;-73
2020/12/29 10:58:42;;;;;;;21.77;19.33;;;;;;;-144.99;100.00;52517.41;5046317;28;20743;-74